Terminal Aerodrome Forecast
Issued by NWS

Home | Current Version | Previous Version | Text Only | Print | Product List | Glossary On
Versions: 1 2 3 4 5 6 7 8 9 10 11 12 13 14 15 16
000
FTUS46 KPDT 250500
TAFRDM
TAF
KRDM 250522Z 2506/2606 30010KT P6SM SCT045 BKN120
     FM251000 30007KT P6SM SCT050
     FM251900 31010KT P6SM FEW050 SCT120
     FM260200 30005KT P6SM SCT100=

USA.gov is the U.S. government's official web portal to all federal, state and local government web resources and services.